Time;durP1;ratioP1;P1;durP2;ratioP2;P2;SDS_P1;SDS_P2;PMS_P1;PMS_P2;Temp;Humidity;BMP_temperature;BMP_pressure;BME280_temperature;BME280_humidity;BME280_pressure;Samples;Min_cycle;Max_cycle;Signal;HPM_P1;HPM_P2
2021/10/08 00:00:24;;;;;;;6.07;5.07;;;;;;;11.91;68.46;103106.63;6304164;28;20234;-52
2021/10/08 00:03:45;;;;;;;5.13;4.43;;;;;;;12.01;67.71;103104.25;6300748;28;20341;-49
2021/10/08 00:07:07;;;;;;;5.70;5.20;;;;;;;11.97;67.70;103109.38;6303521;28;20865;-47
2021/10/08 00:10:29;;;;;;;5.53;5.03;;;;;;;12.08;67.38;103109.59;6304478;28;20246;-49
2021/10/08 00:13:50;;;;;;;5.20;4.80;;;;;;;11.98;67.81;103111.13;6301060;28;20520;-49
2021/10/08 00:17:11;;;;;;;5.30;4.90;;;;;;;12.00;67.31;103112.94;6305103;28;20250;-52
2021/10/08 00:20:32;;;;;;;7.30;5.30;;;;;;;11.74;68.08;103112.31;6307969;28;20191;-52
2021/10/08 00:23:55;;;;;;;6.10;5.60;;;;;;;11.57;69.19;103116.25;6309338;28;20297;-51
2021/10/08 00:27:16;;;;;;;5.97;5.33;;;;;;;11.81;67.78;103118.56;6312044;28;20262;-51
2021/10/08 00:30:37;;;;;;;6.53;4.97;;;;;;;11.83;67.74;103117.75;6309549;28;20218;-48
2021/10/08 00:33:58;;;;;;;6.17;5.20;;;;;;;11.62;68.30;103122.50;6293268;28;20226;-50
2021/10/08 00:37:19;;;;;;;5.30;4.70;;;;;;;11.60;69.00;103121.56;6309564;28;20262;-49
2021/10/08 00:40:44;;;;;;;6.43;5.63;;;;;;;11.76;68.03;103121.06;6295376;28;20226;-50
2021/10/08 00:44:05;;;;;;;5.67;4.60;;;;;;;11.69;68.43;103116.56;6291973;28;21331;-49
2021/10/08 00:47:26;;;;;;;5.53;4.97;;;;;;;11.61;68.51;103123.31;6294775;28;20222;-48
2021/10/08 00:50:49;;;;;;;5.27;4.87;;;;;;;11.62;68.29;103127.69;6305976;28;20203;-54
2021/10/08 00:54:10;;;;;;;6.40;5.23;;;;;;;11.74;67.82;103121.88;6299001;28;20222;-48
2021/10/08 00:57:32;;;;;;;5.03;4.63;;;;;;;11.63;68.02;103119.91;6308514;28;20337;-51
2021/10/08 01:00:53;;;;;;;5.20;4.80;;;;;;;11.62;68.20;103117.25;6303390;28;20206;-49
2021/10/08 01:04:15;;;;;;;5.87;4.63;;;;;;;11.79;67.26;103115.06;6297923;28;20256;-50
2021/10/08 01:07:36;;;;;;;6.03;5.13;;;;;;;11.67;67.99;103119.97;6311195;28;20222;-50
2021/10/08 01:10:57;;;;;;;4.67;4.33;;;;;;;11.61;67.55;103110.28;6292338;28;20218;-51
2021/10/08 01:14:20;;;;;;;8.43;5.50;;;;;;;11.40;68.45;103110.66;6294170;28;20259;-47
2021/10/08 01:17:50;;;;;;;7.80;6.27;;;;;;;11.32;68.78;103115.69;6294527;28;20222;-46
2021/10/08 01:21:12;;;;;;;8.70;4.70;;;;;;;11.25;68.52;103116.38;6311161;28;20541;-48
2021/10/08 01:24:34;;;;;;;6.20;5.30;;;;;;;11.26;68.49;103122.47;6306924;28;20285;-50
2021/10/08 01:27:58;;;;;;;7.13;5.73;;;;;;;11.46;68.22;103123.84;6298104;28;20550;-49
2021/10/08 01:31:27;;;;;;;5.83;5.00;;;;;;;11.16;69.05;103117.03;6306697;28;20229;-50
2021/10/08 01:34:51;;;;;;;6.93;4.50;;;;;;;11.32;69.25;103117.41;6291513;28;20202;-51
2021/10/08 01:38:13;;;;;;;5.10;4.60;;;;;;;11.31;68.68;103115.66;6289868;28;20234;-50
2021/10/08 01:41:35;;;;;;;5.83;5.30;;;;;;;11.29;68.87;103115.63;6295619;28;20234;-47
2021/10/08 01:44:56;;;;;;;4.87;4.47;;;;;;;11.29;68.43;103114.75;6296516;28;20425;-50
2021/10/08 01:48:17;;;;;;;7.00;5.30;;;;;;;11.27;67.90;103119.91;6307434;28;20230;-49
2021/10/08 01:51:38;;;;;;;6.23;5.13;;;;;;;11.14;68.84;103112.63;6307029;28;20227;-47
2021/10/08 01:55:01;;;;;;;9.40;6.73;;;;;;;11.03;69.44;103105.41;6292359;28;20191;-51
2021/10/08 01:58:26;;;;;;;10.37;8.20;;;;;;;11.07;69.13;103106.38;6290996;28;20265;-51
2021/10/08 02:01:48;;;;;;;8.30;6.90;;;;;;;11.03;69.39;103114.94;6301337;28;20793;-51
2021/10/08 02:05:12;;;;;;;8.63;7.50;;;;;;;10.97;69.64;103112.19;6300435;28;20566;-49
2021/10/08 02:08:35;;;;;;;9.00;6.00;;;;;;;10.87;69.58;103121.50;6296308;28;20606;-50
2021/10/08 02:12:03;;;;;;;7.93;6.20;;;;;;;10.94;69.22;103115.59;6309371;28;20227;-51
2021/10/08 02:15:26;;;;;;;7.47;6.67;;;;;;;10.79;69.53;103121.28;6300064;28;20222;-48
2021/10/08 02:18:48;;;;;;;6.77;5.63;;;;;;;10.83;69.64;103128.34;6307710;28;20590;-50
2021/10/08 02:22:09;;;;;;;9.30;6.87;;;;;;;10.93;69.29;103129.47;6307300;28;20497;-49
2021/10/08 02:25:36;;;;;;;7.77;6.40;;;;;;;10.92;68.43;103132.06;6307911;28;20471;-53
2021/10/08 02:28:59;;;;;;;8.03;6.60;;;;;;;11.06;68.41;103135.88;6299831;28;20761;-49
2021/10/08 02:32:24;;;;;;;7.60;6.10;;;;;;;10.97;68.35;103136.56;6295406;28;20234;-53
2021/10/08 02:35:47;;;;;;;9.87;7.87;;;;;;;10.96;68.60;103136.50;6305636;28;20199;-47
2021/10/08 02:39:08;;;;;;;5.83;5.33;;;;;;;11.03;68.90;103134.09;6287805;28;20211;-48
2021/10/08 02:42:29;;;;;;;7.70;6.97;;;;;;;10.93;68.40;103139.00;6294675;28;20231;-50
2021/10/08 02:45:51;;;;;;;7.50;6.80;;;;;;;10.76;68.78;103142.06;6291424;28;20214;-51
2021/10/08 02:49:12;;;;;;;10.27;7.87;;;;;;;10.84;68.68;103150.97;6291406;28;20218;-51
2021/10/08 02:52:33;;;;;;;9.13;8.23;;;;;;;10.87;68.89;103149.28;6313820;28;20544;-51
2021/10/08 02:55:54;;;;;;;10.63;7.40;;;;;;;10.86;68.49;103152.72;6307619;28;20355;-47
2021/10/08 02:59:15;;;;;;;7.70;6.97;;;;;;;10.68;69.59;103155.72;6298181;28;20227;-49
2021/10/08 03:02:37;;;;;;;9.13;8.23;;;;;;;10.77;69.48;103155.97;6295223;28;20230;-46
2021/10/08 03:05:58;;;;;;;6.93;6.23;;;;;;;10.77;68.64;103149.03;6300944;28;20198;-49
2021/10/08 03:09:20;;;;;;;7.43;6.73;;;;;;;10.71;69.45;103148.88;6299229;28;20436;-50
2021/10/08 03:12:41;;;;;;;20.37;18.10;;;;;;;10.66;70.99;103155.66;6306123;28;20218;-48
2021/10/08 03:16:04;;;;;;;15.87;14.27;;;;;;;10.57;71.88;103147.63;6296099;28;20231;-51
2021/10/08 03:19:26;;;;;;;11.50;10.40;;;;;;;10.63;71.54;103156.47;6312400;28;20230;-49
2021/10/08 03:22:47;;;;;;;8.70;7.90;;;;;;;10.97;69.15;103152.19;6291517;28;20227;-47
2021/10/08 03:26:10;;;;;;;8.30;7.50;;;;;;;10.62;69.44;103156.44;6287798;28;20621;-52
2021/10/08 03:29:31;;;;;;;7.53;6.77;;;;;;;10.63;69.35;103158.22;6296765;28;21888;-50
2021/10/08 03:32:52;;;;;;;7.43;6.73;;;;;;;10.53;69.52;103156.19;6312117;28;20222;-47
2021/10/08 03:36:20;;;;;;;9.83;8.43;;;;;;;10.48;70.31;103162.97;6311339;28;20212;-47
2021/10/08 03:39:43;;;;;;;10.07;8.93;;;;;;;10.47;69.96;103158.59;6314207;28;20214;-49
2021/10/08 03:43:04;;;;;;;9.60;8.17;;;;;;;10.36;69.82;103160.91;6316306;28;20444;-49
2021/10/08 03:46:28;;;;;;;26.43;23.60;;;;;;;10.06;71.81;103159.09;6310843;28;20230;-48
2021/10/08 03:49:48;;;;;;;9.40;8.47;;;;;;;10.22;70.85;103165.69;6320141;28;20190;-49
2021/10/08 03:53:11;;;;;;;8.63;7.83;;;;;;;10.27;70.42;103166.69;6316916;28;20222;-48
2021/10/08 03:56:32;;;;;;;7.87;6.53;;;;;;;10.18;70.66;103166.44;6312133;28;20230;-50
2021/10/08 03:59:53;;;;;;;13.13;10.33;;;;;;;10.20;72.84;103175.16;6317254;28;20202;-53
2021/10/08 04:03:14;;;;;;;17.27;15.57;;;;;;;10.39;71.65;103167.09;6295356;28;20253;-50
2021/10/08 04:06:36;;;;;;;23.70;21.37;;;;;;;10.22;72.32;103170.88;6300384;28;20771;-49
2021/10/08 04:09:59;;;;;;;22.90;20.83;;;;;;;10.46;71.11;103164.66;6303512;28;20771;-48
2021/10/08 04:13:20;;;;;;;15.33;13.73;;;;;;;10.33;70.60;103169.53;6310103;28;20254;-48
2021/10/08 04:16:42;;;;;;;12.07;10.97;;;;;;;10.33;70.85;103176.44;6298916;28;20233;-52
2021/10/08 04:20:04;;;;;;;10.83;9.83;;;;;;;10.23;71.49;103173.50;6298523;28;20202;-45
2021/10/08 04:23:27;;;;;;;9.50;8.33;;;;;;;10.14;71.58;103170.66;6293337;28;20234;-52
2021/10/08 04:26:49;;;;;;;9.63;8.73;;;;;;;10.07;71.68;103178.22;6294961;28;20234;-45
2021/10/08 04:30:11;;;;;;;7.43;6.73;;;;;;;10.18;70.92;103176.84;6297778;28;20339;-47
2021/10/08 04:33:36;;;;;;;9.07;8.17;;;;;;;9.97;71.59;103183.16;6309681;28;20223;-50
2021/10/08 04:36:56;;;;;;;8.90;6.90;;;;;;;9.96;71.21;103178.75;6310180;28;20230;-49
2021/10/08 04:40:17;;;;;;;8.53;7.50;;;;;;;10.02;71.64;103176.38;6308012;28;20195;-49
2021/10/08 04:43:40;;;;;;;8.83;7.87;;;;;;;10.26;70.01;103185.75;6303779;28;20597;-50
2021/10/08 04:47:03;;;;;;;8.97;8.17;;;;;;;10.16;69.79;103183.72;6307384;28;20230;-50
2021/10/08 04:50:24;;;;;;;7.77;6.97;;;;;;;10.28;69.31;103178.88;6294916;28;20238;-54
2021/10/08 04:53:46;;;;;;;8.57;7.73;;;;;;;10.27;69.40;103186.63;6301874;28;20234;-50
2021/10/08 04:57:07;;;;;;;9.07;7.67;;;;;;;10.19;69.46;103189.88;6306320;28;20225;-50
2021/10/08 05:00:30;;;;;;;8.97;7.20;;;;;;;10.15;70.19;103192.34;6302020;28;20485;-47
2021/10/08 05:03:52;;;;;;;7.40;6.63;;;;;;;10.20;69.70;103191.66;6294590;28;20354;-50
2021/10/08 05:07:13;;;;;;;7.73;7.00;;;;;;;10.32;68.58;103196.38;6297145;28;20523;-52
2021/10/08 05:10:35;;;;;;;8.93;8.03;;;;;;;10.04;69.51;103198.13;6293395;28;20301;-54
2021/10/08 05:13:56;;;;;;;7.80;6.27;;;;;;;10.16;69.49;103202.81;6299470;28;20231;-50
2021/10/08 05:17:18;;;;;;;8.13;7.20;;;;;;;9.96;70.22;103201.31;6303458;28;20238;-52
2021/10/08 05:20:39;;;;;;;54.70;49.50;;;;;;;10.14;69.51;103201.00;6308077;28;20272;-54
2021/10/08 05:24:01;;;;;;;12.30;11.10;;;;;;;9.99;69.81;103197.09;6297512;28;20286;-48
2021/10/08 05:27:22;;;;;;;10.00;9.00;;;;;;;9.95;70.38;103195.22;6294734;28;20316;-51
2021/10/08 05:30:43;;;;;;;10.07;9.07;;;;;;;10.22;69.35;103200.41;6310571;28;20211;-50
2021/10/08 05:34:05;;;;;;;10.27;7.97;;;;;;;10.31;68.78;103194.59;6319642;28;20226;-50
2021/10/08 05:37:26;;;;;;;8.47;7.77;;;;;;;10.18;69.39;103203.75;6298325;28;20230;-49
2021/10/08 05:40:48;;;;;;;9.17;8.27;;;;;;;10.04;69.44;103200.72;6321275;28;20202;-48
2021/10/08 05:44:10;;;;;;;25.57;10.10;;;;;;;10.17;68.86;103198.50;6291409;28;20218;-56
2021/10/08 05:47:31;;;;;;;13.70;9.57;;;;;;;9.98;70.02;103205.75;6293730;28;20235;-51
2021/10/08 05:50:54;;;;;;;15.60;9.27;;;;;;;9.85;70.71;103199.25;6297756;28;20612;-49
2021/10/08 05:54:15;;;;;;;91.00;21.30;;;;;;;10.15;69.28;103208.84;6304134;28;20234;-52
2021/10/08 05:57:36;;;;;;;71.93;18.90;;;;;;;10.19;68.59;103215.06;6320294;28;20235;-49
2021/10/08 06:00:57;;;;;;;41.10;12.03;;;;;;;10.28;68.77;103215.34;6302413;28;20206;-55
2021/10/08 06:04:18;;;;;;;9.40;7.90;;;;;;;10.21;68.82;103223.78;6315667;28;20215;-52
2021/10/08 06:07:41;;;;;;;10.70;8.40;;;;;;;10.13;69.08;103226.16;6314317;28;20222;-54
2021/10/08 06:11:03;;;;;;;10.90;8.33;;;;;;;10.09;69.86;103226.03;6299547;28;22091;-48
2021/10/08 06:14:24;;;;;;;8.07;6.40;;;;;;;10.28;68.89;103228.34;6301842;28;20214;-50
2021/10/08 06:17:48;;;;;;;11.33;8.60;;;;;;;10.41;68.68;103233.16;6309493;28;22527;-52
2021/10/08 06:21:09;;;;;;;9.63;8.40;;;;;;;10.15;69.90;103239.22;6299052;28;20202;-53
2021/10/08 06:24:32;;;;;;;23.33;16.23;;;;;;;10.35;69.62;103242.47;6298166;28;20613;-52
2021/10/08 06:27:53;;;;;;;33.60;26.90;;;;;;;10.51;69.57;103244.72;6293232;28;20230;-51
2021/10/08 06:31:17;;;;;;;20.70;11.70;;;;;;;10.35;70.23;103243.38;6301737;28;20198;-53
2021/10/08 06:34:40;;;;;;;8.43;7.27;;;;;;;10.51;69.72;103243.84;6295371;28;20595;-50
2021/10/08 06:38:02;;;;;;;8.93;7.67;;;;;;;10.64;68.99;103245.94;6298541;28;20214;-48
2021/10/08 06:41:26;;;;;;;12.47;9.33;;;;;;;10.51;69.25;103251.66;6298902;28;20235;-51
2021/10/08 06:44:56;;;;;;;8.93;7.40;;;;;;;10.89;68.65;103260.56;6312493;28;20198;-48
2021/10/08 06:48:17;;;;;;;15.47;10.00;;;;;;;10.73;68.86;103261.00;6300815;28;20229;-52
2021/10/08 06:51:40;;;;;;;15.47;8.00;;;;;;;10.88;68.45;103257.94;6306257;28;20428;-52
2021/10/08 06:55:02;;;;;;;11.67;8.50;;;;;;;10.97;67.91;103260.78;6304397;28;20226;-53
2021/10/08 06:58:24;;;;;;;11.40;9.07;;;;;;;11.11;67.82;103259.47;6315530;28;20305;-50
2021/10/08 07:01:45;;;;;;;12.47;7.97;;;;;;;11.18;67.46;103265.72;6304242;28;20262;-53
2021/10/08 07:05:06;;;;;;;9.83;8.17;;;;;;;11.46;66.76;103267.38;6309435;28;20199;-49
2021/10/08 07:08:28;;;;;;;12.30;8.57;;;;;;;11.49;66.48;103275.25;6304843;28;20226;-52
2021/10/08 07:11:49;;;;;;;9.67;8.50;;;;;;;11.54;66.55;103271.06;6300527;28;20318;-50
2021/10/08 07:15:16;;;;;;;10.67;8.47;;;;;;;11.46;66.58;103271.69;6301968;28;20211;-48
2021/10/08 07:18:38;;;;;;;11.60;8.43;;;;;;;11.66;66.73;103270.47;6321998;28;20221;-49
2021/10/08 07:21:59;;;;;;;12.00;8.90;;;;;;;11.74;67.11;103268.94;6318079;28;20223;-47
2021/10/08 07:25:22;;;;;;;11.03;9.93;;;;;;;12.04;66.55;103267.06;6323490;28;23097;-51
2021/10/08 07:28:44;;;;;;;10.87;9.67;;;;;;;12.10;66.69;103275.09;6317490;28;20242;-53
2021/10/08 07:32:07;;;;;;;10.90;8.97;;;;;;;12.18;67.11;103271.78;6317875;28;20226;-50
2021/10/08 07:35:28;;;;;;;15.93;14.53;;;;;;;11.96;68.32;103278.25;6313660;28;20226;-51
2021/10/08 07:38:49;;;;;;;25.17;22.77;;;;;;;12.52;67.06;103282.13;6318056;28;20623;-49
2021/10/08 07:42:11;;;;;;;13.03;11.83;;;;;;;12.74;66.62;103284.38;6317993;28;20321;-49
2021/10/08 07:45:32;;;;;;;13.17;11.20;;;;;;;12.73;66.53;103293.03;6316291;28;20625;-53
2021/10/08 07:48:54;;;;;;;9.60;7.97;;;;;;;12.59;67.40;103297.09;6320056;28;20234;-47
2021/10/08 07:52:15;;;;;;;9.73;8.77;;;;;;;12.28;68.45;103293.78;6321302;28;20221;-51
2021/10/08 07:55:36;;;;;;;9.73;8.83;;;;;;;12.20;68.87;103297.97;6314867;28;20219;-52
2021/10/08 07:58:57;;;;;;;12.33;9.90;;;;;;;11.98;69.46;103297.44;6317832;28;20227;-52
2021/10/08 08:02:18;;;;;;;9.60;8.80;;;;;;;-146.32;100.00;58893.91;6311930;28;20226;-50
2021/10/08 08:05:40;;;;;;;12.17;8.63;;;;;;;-146.32;100.00;58893.91;6315140;28;20198;-52
2021/10/08 08:09:01;;;;;;;9.30;8.50;;;;;;;-146.32;100.00;58893.91;6321421;28;20743;-52
2021/10/08 08:12:22;;;;;;;9.83;8.93;;;;;;;-146.32;100.00;58893.91;6299800;28;20246;-51
2021/10/08 08:15:43;;;;;;;11.63;10.43;;;;;;;-146.32;100.00;58893.91;6314547;28;20209;-52
2021/10/08 08:19:04;;;;;;;10.00;9.00;;;;;;;13.04;67.57;103296.28;6318655;28;20259;-50
2021/10/08 08:22:26;;;;;;;9.17;8.27;;;;;;;13.27;66.88;103298.50;6309021;28;20508;-51
2021/10/08 08:25:47;;;;;;;11.77;9.60;;;;;;;13.77;65.71;103293.31;6318608;28;20723;-52
2021/10/08 08:29:08;;;;;;;11.13;9.40;;;;;;;13.73;65.74;103294.13;6287976;28;20211;-52
2021/10/08 08:32:31;;;;;;;10.80;9.90;;;;;;;13.76;65.51;103297.69;6316965;28;20235;-52
2021/10/08 08:35:52;;;;;;;11.07;10.03;;;;;;;14.11;64.73;103296.47;6321790;28;20217;-51
2021/10/08 08:39:15;;;;;;;11.43;10.37;;;;;;;14.34;65.22;103292.47;6319024;28;21138;-53
2021/10/08 08:42:36;;;;;;;9.73;8.83;;;;;;;14.63;64.45;103291.16;6315276;28;20761;-51
2021/10/08 08:45:58;;;;;;;11.23;10.23;;;;;;;14.80;64.07;103292.25;6314332;28;20198;-51
2021/10/08 08:49:18;;;;;;;15.63;12.67;;;;;;;14.83;63.18;103291.41;6316354;28;20223;-54
2021/10/08 08:52:39;;;;;;;10.47;9.47;;;;;;;14.63;63.59;103297.28;6320436;28;20226;-54
2021/10/08 08:56:02;;;;;;;31.33;18.67;;;;;;;15.17;63.97;103290.06;6319233;28;20313;-51
2021/10/08 08:59:23;;;;;;;13.73;12.20;;;;;;;15.19;62.90;103282.22;6313529;28;20226;-49
2021/10/08 09:02:45;;;;;;;10.97;9.90;;;;;;;15.47;62.61;103286.91;6308447;28;20234;-51
2021/10/08 09:06:09;;;;;;;13.60;9.17;;;;;;;15.74;60.92;103282.78;6314303;28;20200;-48
2021/10/08 09:09:30;;;;;;;11.53;8.70;;;;;;;16.13;60.21;103286.59;6316405;28;20214;-51
2021/10/08 09:12:56;;;;;;;9.07;8.00;;;;;;;16.36;59.31;103285.84;6317423;28;20246;-51
2021/10/08 09:16:16;;;;;;;7.60;6.90;;;;;;;16.43;59.26;103283.28;6311201;28;20638;-53
2021/10/08 09:19:49;;;;;;;7.30;6.70;;;;;;;16.91;58.17;103292.31;6315404;28;20206;-53
2021/10/08 09:23:10;;;;;;;8.13;6.63;;;;;;;17.30;57.36;103290.66;6314333;28;20226;-51
2021/10/08 09:26:31;;;;;;;9.27;8.47;;;;;;;17.78;56.34;103288.06;6311158;28;20623;-51
2021/10/08 09:29:56;;;;;;;6.90;6.30;;;;;;;17.82;54.50;103289.84;6308641;28;20210;-49
2021/10/08 09:33:19;;;;;;;9.43;7.17;;;;;;;18.28;54.08;103279.28;6315422;28;20623;-47
2021/10/08 09:36:43;;;;;;;7.37;6.47;;;;;;;18.71;52.67;103288.81;6315929;28;20227;-54
2021/10/08 09:40:06;;;;;;;8.27;7.47;;;;;;;19.26;52.08;103288.53;6312928;28;20199;-53
2021/10/08 09:43:29;;;;;;;6.90;5.87;;;;;;;20.02;49.79;103277.41;6313219;28;20618;-52
2021/10/08 09:46:51;;;;;;;6.90;6.07;;;;;;;22.36;44.74;103276.72;6312322;28;20227;-50
2021/10/08 09:50:13;;;;;;;5.05;4.25;;;;;;;25.20;36.41;103271.19;6324249;28;20226;-49
2021/10/08 09:53:36;;;;;;;6.97;3.90;;;;;;;27.39;31.90;103268.59;6314982;28;20218;-52
2021/10/08 09:57:00;;;;;;;3.55;2.90;;;;;;;28.06;30.05;103263.03;6310444;28;20226;-54
2021/10/08 10:00:43;;;;;;;6.05;5.45;;;;;;;30.10;26.46;103255.81;6321408;28;20274;-51
2021/10/08 10:04:08;;;;;;;5.95;4.45;;;;;;;30.41;24.91;103261.25;6313658;28;20215;-52
2021/10/08 10:07:30;;;;;;;2.85;2.55;;;;;;;31.16;23.58;103261.53;6310980;28;20524;-52
2021/10/08 10:10:52;;;;;;;2.20;2.00;;;;;;;32.58;22.33;103257.44;6320733;28;20635;-51
2021/10/08 10:14:14;;;;;;;3.15;2.88;;;;;;;32.53;22.46;103255.88;6314268;28;20215;-53
2021/10/08 10:17:37;;;;;;;3.83;3.38;;;;;;;32.63;22.47;103253.47;6316381;28;20869;-50
2021/10/08 10:21:00;;;;;;;4.38;3.30;;;;;;;32.61;22.01;103260.81;6311856;28;20194;-55
2021/10/08 10:24:23;;;;;;;2.20;1.98;;;;;;;32.63;22.04;103261.56;6314014;28;20203;-55
2021/10/08 10:27:44;;;;;;;3.20;2.90;;;;;;;33.05;21.67;103266.91;6313244;28;20231;-55
2021/10/08 10:31:06;;;;;;;2.75;2.33;;;;;;;32.57;21.54;103261.94;6312430;28;20190;-52
2021/10/08 10:34:32;;;;;;;2.25;2.05;;;;;;;31.08;22.67;103263.81;6311776;28;20556;-54
2021/10/08 10:37:54;;;;;;;4.82;2.35;;;;;;;34.25;20.37;103266.81;6314157;28;20226;-50
2021/10/08 10:41:26;;;;;;;1.92;1.73;;;;;;;34.25;19.70;103262.25;6322375;28;20190;-52
2021/10/08 10:45:06;;;;;;;3.13;1.67;;;;;;;34.68;19.25;103259.16;6319341;28;20186;-54
2021/10/08 10:48:30;;;;;;;1.65;1.50;;;;;;;34.06;19.50;103253.69;6314323;28;20227;-51
2021/10/08 10:52:26;;;;;;;2.83;1.70;;;;;;;33.20;20.40;103271.31;6314140;28;20326;-49
2021/10/08 10:55:48;;;;;;;6.53;5.57;;;;;;;35.07;18.52;103251.72;6313349;28;20258;-53
2021/10/08 10:59:28;;;;;;;1.77;1.45;;;;;;;34.39;18.84;103260.38;6302367;28;20211;-49
2021/10/08 11:03:00;;;;;;;2.45;1.63;;;;;;;34.33;18.21;103253.56;6307183;28;20226;-53
2021/10/08 11:06:24;;;;;;;1.83;1.20;;;;;;;33.94;18.70;103248.19;6306741;28;20202;-49
2021/10/08 11:10:20;;;;;;;1.20;1.10;;;;;;;34.48;18.17;103251.59;6311275;28;20211;-53
2021/10/08 11:13:42;;;;;;;2.45;1.00;;;;;;;34.86;17.47;103250.63;6306686;28;20233;-54
2021/10/08 11:17:37;;;;;;;6.88;2.30;;;;;;;34.40;18.24;103246.75;6307476;28;20230;-51
2021/10/08 11:20:58;;;;;;;3.03;2.08;;;;;;;34.03;18.02;103245.84;6306254;28;20210;-53
2021/10/08 11:24:22;;;;;;;1.83;1.73;;;;;;;34.75;17.79;103243.31;6307711;28;20253;-52
2021/10/08 11:27:46;;;;;;;1.40;1.30;;;;;;;34.78;17.92;103243.09;6299281;28;20270;-48
2021/10/08 11:31:10;;;;;;;1.77;1.10;;;;;;;34.50;17.71;103244.25;6304931;28;20198;-49
2021/10/08 11:34:31;;;;;;;1.35;1.25;;;;;;;34.94;18.03;103237.38;6309339;28;20199;-50
2021/10/08 11:37:52;;;;;;;2.45;1.50;;;;;;;34.48;18.61;103240.78;6307735;28;20705;-50
2021/10/08 11:41:18;;;;;;;1.90;1.30;;;;;;;33.61;19.22;103235.19;6304793;28;20195;-48
2021/10/08 11:44:54;;;;;;;1.70;1.60;;;;;;;34.95;17.88;103230.13;6304918;28;20207;-50
2021/10/08 11:48:21;;;;;;;2.42;1.60;;;;;;;35.00;17.83;103231.50;6306614;28;20603;-51
2021/10/08 11:51:42;;;;;;;4.03;1.13;;;;;;;34.81;18.16;103228.47;6304192;28;20234;-51
2021/10/08 11:55:12;;;;;;;1.40;1.30;;;;;;;35.08;17.88;103234.47;6308639;28;20258;-53
2021/10/08 11:58:33;;;;;;;3.35;2.38;;;;;;;35.17;17.48;103226.66;6303572;28;20655;-51
2021/10/08 12:02:12;;;;;;;2.13;1.70;;;;;;;36.19;16.75;103224.97;6303981;28;20832;-51
2021/10/08 12:05:47;;;;;;;2.15;1.38;;;;;;;35.91;17.14;103226.34;6302264;28;20281;-50
2021/10/08 12:09:18;;;;;;;3.63;3.33;;;;;;;35.36;17.25;103224.25;6306962;28;20210;-50
2021/10/08 12:12:51;;;;;;;3.10;2.80;;;;;;;34.99;18.52;103224.34;6302269;28;20245;-48
2021/10/08 12:16:14;;;;;;;5.03;3.53;;;;;;;35.63;17.33;103213.06;6302603;28;20202;-49
2021/10/08 12:19:36;;;;;;;3.17;2.55;;;;;;;35.28;17.89;103216.72;6299027;28;20191;-52
2021/10/08 12:23:20;;;;;;;3.63;2.97;;;;;;;35.56;17.55;103211.00;6304486;28;20291;-48
2021/10/08 12:26:44;;;;;;;3.88;2.95;;;;;;;36.87;16.27;103209.38;6303252;28;20396;-50
2021/10/08 12:30:06;;;;;;;1.73;1.50;;;;;;;36.53;17.00;103206.78;6306777;28;20198;-54
2021/10/08 12:33:32;;;;;;;3.30;1.98;;;;;;;35.96;17.75;103199.69;6304608;28;20619;-50
2021/10/08 12:36:58;;;;;;;3.53;2.88;;;;;;;36.10;17.57;103198.56;6304261;28;20636;-51
2021/10/08 12:40:20;;;;;;;3.17;2.88;;;;;;;35.41;18.39;103197.66;6302638;28;20615;-52
2021/10/08 12:43:42;;;;;;;3.60;3.08;;;;;;;32.79;21.68;103206.63;6304978;28;20491;-51
2021/10/08 12:47:09;;;;;;;4.13;2.92;;;;;;;31.40;23.32;103212.59;6304313;28;20625;-52
2021/10/08 12:50:33;;;;;;;3.05;2.63;;;;;;;30.75;24.78;103205.59;6297420;28;20226;-54
2021/10/08 12:54:17;;;;;;;5.18;3.53;;;;;;;29.35;27.24;103205.09;6303922;28;20226;-51
2021/10/08 12:58:00;;;;;;;4.53;3.38;;;;;;;27.35;30.78;103208.13;6299120;28;20246;-52
2021/10/08 13:01:22;;;;;;;4.43;4.10;;;;;;;27.01;31.90;103197.03;6302243;28;20199;-51
2021/10/08 13:04:44;;;;;;;5.60;5.03;;;;;;;26.17;32.90;103193.16;6298419;28;20290;-53
2021/10/08 13:08:13;;;;;;;4.70;4.18;;;;;;;26.32;33.33;103192.56;6294209;28;20230;-53
2021/10/08 13:11:37;;;;;;;3.83;3.53;;;;;;;26.51;32.94;103195.41;6297928;28;20222;-54
2021/10/08 13:15:10;;;;;;;4.57;4.18;;;;;;;26.56;33.12;103197.03;6305016;28;20187;-49
2021/10/08 13:18:41;;;;;;;5.40;4.90;;;;;;;24.69;36.25;103200.84;6298903;28;20488;-54
2021/10/08 13:22:03;;;;;;;6.40;5.82;;;;;;;23.51;39.25;103196.16;6302362;28;20226;-53
2021/10/08 13:25:25;;;;;;;7.47;5.22;;;;;;;25.89;34.90;103185.28;6303280;28;20568;-52
2021/10/08 13:28:46;;;;;;;4.28;3.90;;;;;;;28.58;29.52;103197.28;6296899;28;20230;-49
2021/10/08 13:32:08;;;;;;;7.30;6.15;;;;;;;30.17;27.23;103187.38;6302480;28;20242;-52
2021/10/08 13:35:29;;;;;;;5.68;5.15;;;;;;;28.69;29.62;103189.56;6298027;28;20198;-52
2021/10/08 13:38:50;;;;;;;23.15;20.75;;;;;;;27.32;32.88;103178.84;6297675;28;20498;-52
2021/10/08 13:42:14;;;;;;;15.30;11.75;;;;;;;24.68;38.16;103187.56;6302504;28;20257;-49
2021/10/08 13:45:35;;;;;;;15.13;13.70;;;;;;;23.41;41.48;103189.34;6303812;28;20231;-52
2021/10/08 13:48:57;;;;;;;19.48;17.55;;;;;;;23.17;42.47;103178.44;6304576;28;20320;-51
2021/10/08 13:52:18;;;;;;;12.38;11.27;;;;;;;26.02;36.48;103178.59;6307140;28;20597;-54
2021/10/08 13:55:40;;;;;;;10.18;9.25;;;;;;;27.97;32.83;103175.06;6307509;28;20196;-51
2021/10/08 13:59:00;;;;;;;11.88;10.65;;;;;;;28.07;32.47;103175.50;6309147;28;20234;-49
2021/10/08 14:02:24;;;;;;;11.07;9.98;;;;;;;28.10;32.34;103174.53;6311858;28;20231;-54
2021/10/08 14:06:03;;;;;;;9.68;8.82;;;;;;;29.00;31.03;103175.53;6302780;28;20212;-54
2021/10/08 14:13:02;;;;;;;11.07;9.95;;;;;;;27.40;33.66;103174.91;6296721;28;20230;-54
2021/10/08 14:16:23;;;;;;;13.85;12.65;;;;;;;23.92;40.55;103187.13;6308346;28;20234;-55
2021/10/08 14:19:45;;;;;;;13.05;11.85;;;;;;;22.34;44.99;103193.59;6310246;28;20227;-48
2021/10/08 14:23:07;;;;;;;15.10;13.63;;;;;;;-146.32;100.00;58893.91;6307674;28;20227;-53
2021/10/08 14:26:28;;;;;;;13.02;11.73;;;;;;;-146.32;100.00;58893.91;6309135;28;20317;-54
2021/10/08 14:29:49;;;;;;;13.60;12.30;;;;;;;-146.32;100.00;58893.91;6308535;28;20590;-48
2021/10/08 14:33:10;;;;;;;13.13;11.95;;;;;;;-146.32;100.00;58893.91;6309128;28;20231;-47
2021/10/08 14:36:31;;;;;;;14.20;13.00;;;;;;;22.34;44.99;103193.59;6309528;28;20222;-53
2021/10/08 14:39:53;;;;;;;14.75;13.38;;;;;;;21.59;47.22;103194.09;6310836;28;20223;-55
2021/10/08 14:43:14;;;;;;;12.38;11.20;;;;;;;20.82;49.19;103197.97;6307662;28;20583;-51
2021/10/08 14:46:35;;;;;;;13.23;12.02;;;;;;;21.76;47.27;103190.28;6309180;28;20230;-54
2021/10/08 14:49:56;;;;;;;11.73;10.73;;;;;;;22.30;45.12;103192.78;6310628;28;20481;-49
2021/10/08 14:53:20;;;;;;;13.50;12.25;;;;;;;22.40;44.74;103198.75;6302134;28;20234;-53
2021/10/08 14:56:57;;;;;;;12.85;11.55;;;;;;;22.55;44.93;103193.13;6296483;28;20313;-53
2021/10/08 15:00:18;;;;;;;12.07;11.07;;;;;;;21.63;46.90;103189.59;6307898;28;20285;-51
2021/10/08 15:03:39;;;;;;;15.02;13.60;;;;;;;21.80;46.86;103194.59;6298534;28;20655;-52
2021/10/08 15:07:00;;;;;;;15.40;13.95;;;;;;;21.74;47.18;103187.63;6308607;28;20223;-51
2021/10/08 15:10:21;;;;;;;12.07;11.07;;;;;;;21.20;48.37;103190.31;6309598;28;20212;-52
2021/10/08 15:13:45;;;;;;;14.98;13.75;;;;;;;20.70;49.52;103199.91;6308318;28;20517;-52
2021/10/08 15:17:06;;;;;;;16.08;14.68;;;;;;;20.34;50.33;103197.69;6311735;28;20230;-48
2021/10/08 15:20:27;;;;;;;15.93;14.32;;;;;;;19.81;51.97;103202.69;6314054;28;20203;-54
2021/10/08 15:23:48;;;;;;;21.77;19.67;;;;;;;19.54;52.91;103197.63;6307770;28;20222;-53
2021/10/08 15:27:09;;;;;;;20.88;18.88;;;;;;;19.54;52.91;103197.63;6309301;28;20708;-51
2021/10/08 15:30:31;;;;;;;21.02;19.00;;;;;;;19.25;54.25;103196.09;6313512;28;20689;-46
2021/10/08 15:33:52;;;;;;;27.58;24.90;;;;;;;18.89;55.25;103192.84;6316237;28;20226;-52
2021/10/08 15:37:13;;;;;;;30.77;27.75;;;;;;;19.13;54.65;103196.19;6314843;28;22981;-48
2021/10/08 15:40:34;;;;;;;32.35;28.98;;;;;;;19.00;54.45;103196.28;6316677;28;20234;-50